sensor_id;sensor_type;location;lat;lon;timestamp;P1;durP1;ratioP1;P2;durP2;ratioP2
20890;SDS011;10605;52.968;8.844;2022-10-23T00:01:11;34.63;;;17.85;;
20890;SDS011;10605;52.968;8.844;2022-10-23T00:03:41;45.47;;;18.35;;
20890;SDS011;10605;52.968;8.844;2022-10-23T00:06:07;29.80;;;17.80;;
20890;SDS011;10605;52.968;8.844;2022-10-23T00:08:33;34.50;;;17.23;;
20890;SDS011;10605;52.968;8.844;2022-10-23T00:10:59;33.13;;;17.90;;
20890;SDS011;10605;52.968;8.844;2022-10-23T00:13:25;35.50;;;17.48;;
20890;SDS011;10605;52.968;8.844;2022-10-23T00:15:50;37.22;;;17.05;;
20890;SDS011;10605;52.968;8.844;2022-10-23T00:18:16;40.15;;;16.33;;
20890;SDS011;10605;52.968;8.844;2022-10-23T00:20:42;34.22;;;16.95;;
20890;SDS011;10605;52.968;8.844;2022-10-23T00:23:07;46.70;;;17.65;;
20890;SDS011;10605;52.968;8.844;2022-10-23T00:25:33;37.88;;;17.05;;
20890;SDS011;10605;52.968;8.844;2022-10-23T00:27:59;32.85;;;16.85;;
20890;SDS011;10605;52.968;8.844;2022-10-23T00:30:24;40.22;;;19.08;;
20890;SDS011;10605;52.968;8.844;2022-10-23T00:32:50;40.35;;;18.73;;
20890;SDS011;10605;52.968;8.844;2022-10-23T00:35:16;37.92;;;18.13;;
20890;SDS011;10605;52.968;8.844;2022-10-23T00:37:42;35.65;;;17.75;;
20890;SDS011;10605;52.968;8.844;2022-10-23T00:40:08;34.78;;;18.30;;
20890;SDS011;10605;52.968;8.844;2022-10-23T00:42:34;43.42;;;16.85;;
20890;SDS011;10605;52.968;8.844;2022-10-23T00:45:10;34.95;;;16.83;;
20890;SDS011;10605;52.968;8.844;2022-10-23T00:47:45;32.00;;;15.63;;
20890;SDS011;10605;52.968;8.844;2022-10-23T00:50:12;32.15;;;16.80;;
20890;SDS011;10605;52.968;8.844;2022-10-23T00:52:43;39.00;;;17.58;;
20890;SDS011;10605;52.968;8.844;2022-10-23T00:55:11;45.72;;;17.55;;
20890;SDS011;10605;52.968;8.844;2022-10-23T00:57:40;33.10;;;15.52;;
20890;SDS011;10605;52.968;8.844;2022-10-23T01:00:07;31.33;;;15.38;;
20890;SDS011;10605;52.968;8.844;2022-10-23T01:02:53;26.70;;;14.80;;
20890;SDS011;10605;52.968;8.844;2022-10-23T01:05:21;28.63;;;14.10;;
20890;SDS011;10605;52.968;8.844;2022-10-23T01:08:01;33.10;;;14.93;;
20890;SDS011;10605;52.968;8.844;2022-10-23T01:10:36;26.05;;;14.38;;
20890;SDS011;10605;52.968;8.844;2022-10-23T01:13:21;26.42;;;13.32;;
20890;SDS011;10605;52.968;8.844;2022-10-23T01:15:52;20.95;;;13.00;;
20890;SDS011;10605;52.968;8.844;2022-10-23T01:18:25;18.35;;;12.75;;
20890;SDS011;10605;52.968;8.844;2022-10-23T01:26:56;21.52;;;12.32;;
20890;SDS011;10605;52.968;8.844;2022-10-23T01:29:40;18.73;;;12.75;;
20890;SDS011;10605;52.968;8.844;2022-10-23T01:34:59;20.30;;;13.52;;
20890;SDS011;10605;52.968;8.844;2022-10-23T01:37:39;25.30;;;13.05;;
20890;SDS011;10605;52.968;8.844;2022-10-23T01:40:42;18.75;;;12.68;;
20890;SDS011;10605;52.968;8.844;2022-10-23T01:43:25;20.35;;;12.65;;
20890;SDS011;10605;52.968;8.844;2022-10-23T01:46:00;18.27;;;12.13;;
20890;SDS011;10605;52.968;8.844;2022-10-23T01:48:29;20.65;;;12.63;;
20890;SDS011;10605;52.968;8.844;2022-10-23T01:50:59;17.10;;;12.13;;
20890;SDS011;10605;52.968;8.844;2022-10-23T01:53:30;19.92;;;11.73;;
20890;SDS011;10605;52.968;8.844;2022-10-23T01:56:00;23.38;;;13.05;;
20890;SDS011;10605;52.968;8.844;2022-10-23T01:58:29;22.52;;;13.30;;
20890;SDS011;10605;52.968;8.844;2022-10-23T02:00:57;25.63;;;13.05;;
20890;SDS011;10605;52.968;8.844;2022-10-23T02:03:28;18.33;;;11.25;;
20890;SDS011;10605;52.968;8.844;2022-10-23T02:05:57;20.75;;;11.45;;
20890;SDS011;10605;52.968;8.844;2022-10-23T02:08:23;18.05;;;11.07;;
20890;SDS011;10605;52.968;8.844;2022-10-23T02:10:54;16.98;;;10.63;;
20890;SDS011;10605;52.968;8.844;2022-10-23T02:13:58;15.00;;;11.00;;
20890;SDS011;10605;52.968;8.844;2022-10-23T02:20:02;17.63;;;9.45;;
20890;SDS011;10605;52.968;8.844;2022-10-23T02:24:55;9.27;;;8.38;;
20890;SDS011;10605;52.968;8.844;2022-10-23T02:27:46;12.18;;;10.82;;
20890;SDS011;10605;52.968;8.844;2022-10-23T02:30:16;55.83;;;10.85;;
20890;SDS011;10605;52.968;8.844;2022-10-23T02:32:43;14.18;;;10.98;;
20890;SDS011;10605;52.968;8.844;2022-10-23T02:35:12;18.45;;;11.85;;
20890;SDS011;10605;52.968;8.844;2022-10-23T02:37:38;23.92;;;11.57;;
20890;SDS011;10605;52.968;8.844;2022-10-23T02:40:08;17.15;;;12.40;;
20890;SDS011;10605;52.968;8.844;2022-10-23T02:42:35;27.25;;;14.27;;
20890;SDS011;10605;52.968;8.844;2022-10-23T02:45:08;20.42;;;14.27;;
20890;SDS011;10605;52.968;8.844;2022-10-23T02:47:53;34.97;;;15.93;;
20890;SDS011;10605;52.968;8.844;2022-10-23T02:50:48;30.73;;;16.08;;
20890;SDS011;10605;52.968;8.844;2022-10-23T02:59:49;47.17;;;16.63;;
20890;SDS011;10605;52.968;8.844;2022-10-23T03:02:08;188.30;;;16.13;;
20890;SDS011;10605;52.968;8.844;2022-10-23T03:04:56;36.88;;;12.23;;
20890;SDS011;10605;52.968;8.844;2022-10-23T03:07:27;396.77;;;15.40;;
20890;SDS011;10605;52.968;8.844;2022-10-23T03:09:53;101.35;;;12.13;;
20890;SDS011;10605;52.968;8.844;2022-10-23T03:12:18;139.82;;;12.57;;
20890;SDS011;10605;52.968;8.844;2022-10-23T03:14:47;15.20;;;11.82;;
20890;SDS011;10605;52.968;8.844;2022-10-23T03:17:12;27.52;;;14.10;;
20890;SDS011;10605;52.968;8.844;2022-10-23T03:19:38;23.23;;;15.38;;
20890;SDS011;10605;52.968;8.844;2022-10-23T03:22:04;23.77;;;15.43;;
20890;SDS011;10605;52.968;8.844;2022-10-23T03:24:29;29.95;;;16.98;;
20890;SDS011;10605;52.968;8.844;2022-10-23T03:26:55;30.58;;;18.88;;
20890;SDS011;10605;52.968;8.844;2022-10-23T03:29:26;38.75;;;19.00;;
20890;SDS011;10605;52.968;8.844;2022-10-23T03:31:52;39.95;;;19.90;;
20890;SDS011;10605;52.968;8.844;2022-10-23T03:34:20;36.15;;;20.73;;
20890;SDS011;10605;52.968;8.844;2022-10-23T03:36:49;38.55;;;21.42;;
20890;SDS011;10605;52.968;8.844;2022-10-23T03:39:15;37.85;;;21.00;;
20890;SDS011;10605;52.968;8.844;2022-10-23T03:41:41;32.35;;;19.90;;
20890;SDS011;10605;52.968;8.844;2022-10-23T03:44:06;36.42;;;20.08;;
20890;SDS011;10605;52.968;8.844;2022-10-23T03:46:35;37.40;;;20.23;;
20890;SDS011;10605;52.968;8.844;2022-10-23T03:49:03;30.83;;;18.80;;
20890;SDS011;10605;52.968;8.844;2022-10-23T03:51:29;28.40;;;19.52;;
20890;SDS011;10605;52.968;8.844;2022-10-23T03:54:01;33.65;;;18.55;;
20890;SDS011;10605;52.968;8.844;2022-10-23T03:56:27;20.77;;;15.82;;
20890;SDS011;10605;52.968;8.844;2022-10-23T03:58:52;29.83;;;16.77;;
20890;SDS011;10605;52.968;8.844;2022-10-23T04:01:18;27.58;;;17.42;;
20890;SDS011;10605;52.968;8.844;2022-10-23T04:03:43;35.10;;;19.70;;
20890;SDS011;10605;52.968;8.844;2022-10-23T04:06:09;35.67;;;20.38;;
20890;SDS011;10605;52.968;8.844;2022-10-23T04:08:35;37.60;;;20.25;;
20890;SDS011;10605;52.968;8.844;2022-10-23T04:11:00;32.50;;;21.17;;
20890;SDS011;10605;52.968;8.844;2022-10-23T04:13:26;44.33;;;21.65;;
20890;SDS011;10605;52.968;8.844;2022-10-23T04:15:52;49.83;;;19.40;;
20890;SDS011;10605;52.968;8.844;2022-10-23T04:18:18;52.03;;;21.92;;
20890;SDS011;10605;52.968;8.844;2022-10-23T04:20:46;35.42;;;21.17;;
20890;SDS011;10605;52.968;8.844;2022-10-23T04:23:14;41.80;;;21.60;;
20890;SDS011;10605;52.968;8.844;2022-10-23T04:25:40;44.65;;;24.30;;
20890;SDS011;10605;52.968;8.844;2022-10-23T04:28:06;46.03;;;24.35;;
20890;SDS011;10605;52.968;8.844;2022-10-23T04:30:37;47.95;;;25.27;;
20890;SDS011;10605;52.968;8.844;2022-10-23T04:33:03;62.08;;;26.83;;
20890;SDS011;10605;52.968;8.844;2022-10-23T04:35:28;105.35;;;27.40;;
20890;SDS011;10605;52.968;8.844;2022-10-23T04:37:54;50.10;;;26.60;;
20890;SDS011;10605;52.968;8.844;2022-10-23T04:40:20;58.47;;;28.58;;
20890;SDS011;10605;52.968;8.844;2022-10-23T04:42:45;71.85;;;27.50;;
20890;SDS011;10605;52.968;8.844;2022-10-23T04:45:11;50.42;;;25.65;;
20890;SDS011;10605;52.968;8.844;2022-10-23T04:47:36;54.08;;;24.67;;
20890;SDS011;10605;52.968;8.844;2022-10-23T04:50:03;41.40;;;22.48;;
20890;SDS011;10605;52.968;8.844;2022-10-23T04:52:29;45.83;;;23.77;;
20890;SDS011;10605;52.968;8.844;2022-10-23T04:54:54;47.10;;;24.08;;
20890;SDS011;10605;52.968;8.844;2022-10-23T04:57:20;48.65;;;23.92;;
20890;SDS011;10605;52.968;8.844;2022-10-23T04:59:46;40.88;;;21.98;;
20890;SDS011;10605;52.968;8.844;2022-10-23T05:02:11;39.35;;;22.63;;
20890;SDS011;10605;52.968;8.844;2022-10-23T05:04:37;37.22;;;21.88;;
20890;SDS011;10605;52.968;8.844;2022-10-23T05:07:03;40.60;;;21.45;;
20890;SDS011;10605;52.968;8.844;2022-10-23T05:09:32;41.70;;;21.42;;
20890;SDS011;10605;52.968;8.844;2022-10-23T05:11:58;37.10;;;20.15;;
20890;SDS011;10605;52.968;8.844;2022-10-23T05:14:26;36.55;;;21.30;;
20890;SDS011;10605;52.968;8.844;2022-10-23T05:16:56;32.30;;;20.35;;
20890;SDS011;10605;52.968;8.844;2022-10-23T05:19:26;79.45;;;19.95;;
20890;SDS011;10605;52.968;8.844;2022-10-23T05:21:57;88.75;;;19.02;;
20890;SDS011;10605;52.968;8.844;2022-10-23T05:24:23;39.90;;;19.13;;
20890;SDS011;10605;52.968;8.844;2022-10-23T05:26:49;44.40;;;20.48;;
20890;SDS011;10605;52.968;8.844;2022-10-23T05:29:17;45.80;;;20.52;;
20890;SDS011;10605;52.968;8.844;2022-10-23T05:31:43;45.00;;;21.50;;
20890;SDS011;10605;52.968;8.844;2022-10-23T05:34:11;45.40;;;21.52;;
20890;SDS011;10605;52.968;8.844;2022-10-23T05:36:39;47.13;;;21.33;;
20890;SDS011;10605;52.968;8.844;2022-10-23T05:39:07;46.22;;;22.20;;
20890;SDS011;10605;52.968;8.844;2022-10-23T05:41:40;46.15;;;21.85;;
20890;SDS011;10605;52.968;8.844;2022-10-23T05:44:06;41.70;;;22.63;;
20890;SDS011;10605;52.968;8.844;2022-10-23T05:46:31;42.85;;;20.23;;
20890;SDS011;10605;52.968;8.844;2022-10-23T05:49:07;43.83;;;20.88;;
20890;SDS011;10605;52.968;8.844;2022-10-23T05:51:36;37.85;;;19.58;;
20890;SDS011;10605;52.968;8.844;2022-10-23T05:54:06;37.17;;;19.10;;
20890;SDS011;10605;52.968;8.844;2022-10-23T05:56:35;40.97;;;18.70;;
20890;SDS011;10605;52.968;8.844;2022-10-23T05:59:05;32.47;;;19.50;;
20890;SDS011;10605;52.968;8.844;2022-10-23T06:01:32;37.28;;;18.60;;
20890;SDS011;10605;52.968;8.844;2022-10-23T06:03:58;39.55;;;18.83;;
20890;SDS011;10605;52.968;8.844;2022-10-23T06:06:26;36.20;;;18.98;;
20890;SDS011;10605;52.968;8.844;2022-10-23T06:08:55;42.97;;;19.98;;
20890;SDS011;10605;52.968;8.844;2022-10-23T06:11:21;35.22;;;18.73;;
20890;SDS011;10605;52.968;8.844;2022-10-23T06:13:47;39.33;;;17.92;;
20890;SDS011;10605;52.968;8.844;2022-10-23T06:16:14;44.33;;;18.50;;
20890;SDS011;10605;52.968;8.844;2022-10-23T06:18:45;38.22;;;18.45;;
20890;SDS011;10605;52.968;8.844;2022-10-23T06:21:11;33.63;;;17.83;;
20890;SDS011;10605;52.968;8.844;2022-10-23T06:23:38;44.40;;;19.35;;
20890;SDS011;10605;52.968;8.844;2022-10-23T06:26:05;41.38;;;19.15;;
20890;SDS011;10605;52.968;8.844;2022-10-23T06:28:32;37.78;;;19.25;;
20890;SDS011;10605;52.968;8.844;2022-10-23T06:30:58;42.78;;;18.38;;
20890;SDS011;10605;52.968;8.844;2022-10-23T06:33:24;40.95;;;18.67;;
20890;SDS011;10605;52.968;8.844;2022-10-23T06:35:49;38.25;;;18.60;;
20890;SDS011;10605;52.968;8.844;2022-10-23T06:38:18;34.40;;;18.65;;
20890;SDS011;10605;52.968;8.844;2022-10-23T06:40:44;37.08;;;17.42;;
20890;SDS011;10605;52.968;8.844;2022-10-23T06:43:20;30.55;;;15.82;;
20890;SDS011;10605;52.968;8.844;2022-10-23T06:45:48;35.83;;;16.75;;
20890;SDS011;10605;52.968;8.844;2022-10-23T06:48:15;35.05;;;16.10;;
20890;SDS011;10605;52.968;8.844;2022-10-23T06:51:03;31.90;;;16.20;;
20890;SDS011;10605;52.968;8.844;2022-10-23T06:53:30;29.83;;;15.55;;
20890;SDS011;10605;52.968;8.844;2022-10-23T06:55:59;27.58;;;15.18;;
20890;SDS011;10605;52.968;8.844;2022-10-23T06:58:32;25.60;;;14.38;;
20890;SDS011;10605;52.968;8.844;2022-10-23T07:01:02;26.05;;;14.25;;
20890;SDS011;10605;52.968;8.844;2022-10-23T07:03:30;22.08;;;14.23;;
20890;SDS011;10605;52.968;8.844;2022-10-23T07:05:59;26.02;;;13.95;;
20890;SDS011;10605;52.968;8.844;2022-10-23T07:08:26;23.80;;;12.60;;
20890;SDS011;10605;52.968;8.844;2022-10-23T07:10:55;32.35;;;13.93;;
20890;SDS011;10605;52.968;8.844;2022-10-23T07:13:37;22.73;;;13.43;;
20890;SDS011;10605;52.968;8.844;2022-10-23T07:16:10;18.08;;;11.73;;
20890;SDS011;10605;52.968;8.844;2022-10-23T07:18:37;16.83;;;10.98;;
20890;SDS011;10605;52.968;8.844;2022-10-23T07:21:06;12.23;;;10.23;;
20890;SDS011;10605;52.968;8.844;2022-10-23T07:23:32;18.63;;;10.48;;
20890;SDS011;10605;52.968;8.844;2022-10-23T07:26:10;11.77;;;10.05;;
20890;SDS011;10605;52.968;8.844;2022-10-23T07:28:39;13.13;;;9.35;;
20890;SDS011;10605;52.968;8.844;2022-10-23T07:31:06;13.27;;;9.18;;
20890;SDS011;10605;52.968;8.844;2022-10-23T07:33:33;15.30;;;8.57;;
20890;SDS011;10605;52.968;8.844;2022-10-23T07:35:59;14.45;;;8.07;;
20890;SDS011;10605;52.968;8.844;2022-10-23T07:38:25;11.77;;;7.60;;
20890;SDS011;10605;52.968;8.844;2022-10-23T07:40:51;12.43;;;7.60;;
20890;SDS011;10605;52.968;8.844;2022-10-23T07:43:20;9.65;;;7.20;;
20890;SDS011;10605;52.968;8.844;2022-10-23T07:45:49;8.50;;;7.57;;
20890;SDS011;10605;52.968;8.844;2022-10-23T07:48:18;13.75;;;7.78;;
20890;SDS011;10605;52.968;8.844;2022-10-23T07:50:47;7.53;;;6.80;;
20890;SDS011;10605;52.968;8.844;2022-10-23T07:53:17;8.65;;;7.03;;
20890;SDS011;10605;52.968;8.844;2022-10-23T07:55:57;7.38;;;6.75;;
20890;SDS011;10605;52.968;8.844;2022-10-23T07:58:25;12.27;;;7.80;;
20890;SDS011;10605;52.968;8.844;2022-10-23T08:00:53;8.55;;;7.68;;
20890;SDS011;10605;52.968;8.844;2022-10-23T08:03:27;17.10;;;7.28;;
20890;SDS011;10605;52.968;8.844;2022-10-23T08:05:54;8.30;;;7.60;;
20890;SDS011;10605;52.968;8.844;2022-10-23T08:08:29;9.20;;;6.82;;
20890;SDS011;10605;52.968;8.844;2022-10-23T08:10:58;7.20;;;6.50;;
20890;SDS011;10605;52.968;8.844;2022-10-23T08:13:26;6.57;;;5.93;;
20890;SDS011;10605;52.968;8.844;2022-10-23T08:15:54;10.30;;;6.80;;
20890;SDS011;10605;52.968;8.844;2022-10-23T08:18:20;7.05;;;6.35;;
20890;SDS011;10605;52.968;8.844;2022-10-23T08:20:49;8.02;;;6.57;;
20890;SDS011;10605;52.968;8.844;2022-10-23T08:23:16;9.02;;;6.07;;
20890;SDS011;10605;52.968;8.844;2022-10-23T08:25:43;7.35;;;6.05;;
20890;SDS011;10605;52.968;8.844;2022-10-23T08:28:12;9.75;;;6.60;;
20890;SDS011;10605;52.968;8.844;2022-10-23T08:30:39;6.38;;;5.82;;
20890;SDS011;10605;52.968;8.844;2022-10-23T08:33:05;10.73;;;6.45;;
20890;SDS011;10605;52.968;8.844;2022-10-23T08:35:34;7.20;;;6.45;;
20890;SDS011;10605;52.968;8.844;2022-10-23T08:38:06;10.02;;;6.03;;
20890;SDS011;10605;52.968;8.844;2022-10-23T08:40:34;11.77;;;6.45;;
20890;SDS011;10605;52.968;8.844;2022-10-23T08:45:42;7.15;;;6.25;;
20890;SDS011;10605;52.968;8.844;2022-10-23T08:48:25;12.48;;;6.15;;
20890;SDS011;10605;52.968;8.844;2022-10-23T08:54:14;11.82;;;5.90;;
20890;SDS011;10605;52.968;8.844;2022-10-23T08:56:41;8.70;;;5.80;;
20890;SDS011;10605;52.968;8.844;2022-10-23T08:59:15;6.00;;;5.38;;
20890;SDS011;10605;52.968;8.844;2022-10-23T09:01:57;6.07;;;5.57;;
20890;SDS011;10605;52.968;8.844;2022-10-23T09:04:35;8.77;;;5.30;;
20890;SDS011;10605;52.968;8.844;2022-10-23T09:13:29;7.20;;;4.72;;
20890;SDS011;10605;52.968;8.844;2022-10-23T09:18:51;11.32;;;4.75;;
20890;SDS011;10605;52.968;8.844;2022-10-23T09:21:36;8.43;;;5.72;;
20890;SDS011;10605;52.968;8.844;2022-10-23T09:24:17;8.85;;;4.93;;
20890;SDS011;10605;52.968;8.844;2022-10-23T09:26:48;7.40;;;5.43;;
20890;SDS011;10605;52.968;8.844;2022-10-23T09:29:26;8.50;;;4.75;;
20890;SDS011;10605;52.968;8.844;2022-10-23T09:31:56;6.95;;;4.72;;
20890;SDS011;10605;52.968;8.844;2022-10-23T09:34:25;5.75;;;5.15;;
20890;SDS011;10605;52.968;8.844;2022-10-23T09:36:58;7.20;;;5.35;;
20890;SDS011;10605;52.968;8.844;2022-10-23T09:39:46;8.02;;;5.57;;
20890;SDS011;10605;52.968;8.844;2022-10-23T09:42:25;10.75;;;6.00;;
20890;SDS011;10605;52.968;8.844;2022-10-23T09:44:56;5.75;;;5.30;;
20890;SDS011;10605;52.968;8.844;2022-10-23T09:47:30;8.32;;;5.75;;
20890;SDS011;10605;52.968;8.844;2022-10-23T09:49:58;6.78;;;5.18;;
20890;SDS011;10605;52.968;8.844;2022-10-23T09:52:32;5.38;;;4.88;;
20890;SDS011;10605;52.968;8.844;2022-10-23T09:55:19;5.38;;;4.93;;
20890;SDS011;10605;52.968;8.844;2022-10-23T09:57:49;7.88;;;5.32;;
20890;SDS011;10605;52.968;8.844;2022-10-23T10:00:31;13.57;;;5.15;;
20890;SDS011;10605;52.968;8.844;2022-10-23T10:03:30;7.45;;;4.10;;
20890;SDS011;10605;52.968;8.844;2022-10-23T10:05:57;8.98;;;4.45;;
20890;SDS011;10605;52.968;8.844;2022-10-23T10:08:25;6.82;;;4.20;;
20890;SDS011;10605;52.968;8.844;2022-10-23T10:11:22;8.95;;;4.60;;
20890;SDS011;10605;52.968;8.844;2022-10-23T10:17:02;7.10;;;4.18;;
20890;SDS011;10605;52.968;8.844;2022-10-23T10:22:29;4.97;;;4.25;;
20890;SDS011;10605;52.968;8.844;2022-10-23T10:25:13;8.27;;;4.32;;
20890;SDS011;10605;52.968;8.844;2022-10-23T10:27:55;6.97;;;4.18;;
20890;SDS011;10605;52.968;8.844;2022-10-23T10:53:45;7.78;;;4.25;;
20890;SDS011;10605;52.968;8.844;2022-10-23T10:56:15;6.82;;;4.57;;
20890;SDS011;10605;52.968;8.844;2022-10-23T10:58:51;8.38;;;4.07;;
20890;SDS011;10605;52.968;8.844;2022-10-23T11:01:52;11.25;;;4.60;;
20890;SDS011;10605;52.968;8.844;2022-10-23T11:08:04;5.32;;;4.30;;
20890;SDS011;10605;52.968;8.844;2022-10-23T11:10:41;7.50;;;4.38;;
20890;SDS011;10605;52.968;8.844;2022-10-23T11:13:25;6.10;;;4.03;;
20890;SDS011;10605;52.968;8.844;2022-10-23T11:16:29;7.75;;;3.70;;
20890;SDS011;10605;52.968;8.844;2022-10-23T11:19:02;8.93;;;4.07;;
20890;SDS011;10605;52.968;8.844;2022-10-23T11:38:08;10.50;;;4.10;;
20890;SDS011;10605;52.968;8.844;2022-10-23T11:40:53;4.45;;;3.55;;
20890;SDS011;10605;52.968;8.844;2022-10-23T11:43:32;13.38;;;4.22;;
20890;SDS011;10605;52.968;8.844;2022-10-23T11:48:53;4.78;;;4.25;;
20890;SDS011;10605;52.968;8.844;2022-10-23T11:51:31;6.72;;;4.30;;
20890;SDS011;10605;52.968;8.844;2022-10-23T11:59:23;5.00;;;4.43;;
20890;SDS011;10605;52.968;8.844;2022-10-23T12:02:01;5.95;;;4.60;;
20890;SDS011;10605;52.968;8.844;2022-10-23T12:04:48;9.15;;;4.45;;
20890;SDS011;10605;52.968;8.844;2022-10-23T12:07:36;9.95;;;4.28;;
20890;SDS011;10605;52.968;8.844;2022-10-23T12:10:06;6.93;;;4.70;;
20890;SDS011;10605;52.968;8.844;2022-10-23T12:13:05;6.68;;;3.70;;
20890;SDS011;10605;52.968;8.844;2022-10-23T12:16:10;6.30;;;4.05;;
20890;SDS011;10605;52.968;8.844;2022-10-23T12:18:45;9.45;;;4.53;;
20890;SDS011;10605;52.968;8.844;2022-10-23T12:24:05;4.70;;;4.05;;
20890;SDS011;10605;52.968;8.844;2022-10-23T12:26:54;13.43;;;4.28;;
20890;SDS011;10605;52.968;8.844;2022-10-23T12:40:27;13.25;;;4.32;;
20890;SDS011;10605;52.968;8.844;2022-10-23T12:42:57;9.95;;;3.88;;
20890;SDS011;10605;52.968;8.844;2022-10-23T12:45:38;7.32;;;3.90;;
20890;SDS011;10605;52.968;8.844;2022-10-23T12:48:16;7.05;;;3.47;;
20890;SDS011;10605;52.968;8.844;2022-10-23T12:50:46;8.85;;;3.47;;
20890;SDS011;10605;52.968;8.844;2022-10-23T12:53:15;11.48;;;3.75;;
20890;SDS011;10605;52.968;8.844;2022-10-23T12:55:55;4.63;;;3.10;;
20890;SDS011;10605;52.968;8.844;2022-10-23T12:58:28;6.70;;;3.72;;
20890;SDS011;10605;52.968;8.844;2022-10-23T13:01:00;8.38;;;3.45;;
20890;SDS011;10605;52.968;8.844;2022-10-23T13:03:30;7.40;;;3.50;;
20890;SDS011;10605;52.968;8.844;2022-10-23T13:06:00;7.78;;;3.72;;
20890;SDS011;10605;52.968;8.844;2022-10-23T13:08:32;5.75;;;3.10;;
20890;SDS011;10605;52.968;8.844;2022-10-23T13:11:04;6.22;;;3.80;;
20890;SDS011;10605;52.968;8.844;2022-10-23T13:13:30;8.38;;;3.35;;
20890;SDS011;10605;52.968;8.844;2022-10-23T13:15:56;4.50;;;3.20;;
20890;SDS011;10605;52.968;8.844;2022-10-23T13:18:22;9.73;;;3.03;;
20890;SDS011;10605;52.968;8.844;2022-10-23T13:23:26;5.13;;;2.83;;
20890;SDS011;10605;52.968;8.844;2022-10-23T13:25:56;7.13;;;3.25;;
20890;SDS011;10605;52.968;8.844;2022-10-23T13:28:49;4.13;;;3.25;;
20890;SDS011;10605;52.968;8.844;2022-10-23T13:33:44;3.50;;;2.72;;
20890;SDS011;10605;52.968;8.844;2022-10-23T13:38:42;6.05;;;2.88;;
20890;SDS011;10605;52.968;8.844;2022-10-23T13:41:15;4.97;;;3.03;;
20890;SDS011;10605;52.968;8.844;2022-10-23T13:43:43;6.72;;;3.10;;
20890;SDS011;10605;52.968;8.844;2022-10-23T13:46:14;6.28;;;2.70;;
20890;SDS011;10605;52.968;8.844;2022-10-23T13:48:44;5.68;;;2.80;;
20890;SDS011;10605;52.968;8.844;2022-10-23T13:51:20;8.23;;;2.50;;
20890;SDS011;10605;52.968;8.844;2022-10-23T13:53:50;4.32;;;2.75;;
20890;SDS011;10605;52.968;8.844;2022-10-23T13:56:19;5.55;;;2.35;;
20890;SDS011;10605;52.968;8.844;2022-10-23T13:58:46;9.38;;;2.83;;
20890;SDS011;10605;52.968;8.844;2022-10-23T14:01:23;7.95;;;2.50;;
20890;SDS011;10605;52.968;8.844;2022-10-23T14:03:59;5.07;;;2.67;;
20890;SDS011;10605;52.968;8.844;2022-10-23T14:06:28;4.97;;;2.22;;
20890;SDS011;10605;52.968;8.844;2022-10-23T14:08:54;9.35;;;2.35;;
20890;SDS011;10605;52.968;8.844;2022-10-23T14:11:22;7.13;;;2.30;;
20890;SDS011;10605;52.968;8.844;2022-10-23T14:13:49;7.25;;;2.55;;
20890;SDS011;10605;52.968;8.844;2022-10-23T14:16:16;6.80;;;2.90;;
20890;SDS011;10605;52.968;8.844;2022-10-23T14:18:42;7.28;;;2.80;;
20890;SDS011;10605;52.968;8.844;2022-10-23T14:21:12;7.15;;;2.90;;
20890;SDS011;10605;52.968;8.844;2022-10-23T14:23:39;6.68;;;2.30;;
20890;SDS011;10605;52.968;8.844;2022-10-23T14:26:06;5.97;;;2.55;;
20890;SDS011;10605;52.968;8.844;2022-10-23T14:28:33;3.50;;;2.30;;
20890;SDS011;10605;52.968;8.844;2022-10-23T14:31:07;7.00;;;2.78;;
20890;SDS011;10605;52.968;8.844;2022-10-23T14:33:38;6.38;;;2.38;;
20890;SDS011;10605;52.968;8.844;2022-10-23T14:36:04;3.30;;;2.20;;
20890;SDS011;10605;52.968;8.844;2022-10-23T14:38:31;7.70;;;2.65;;
20890;SDS011;10605;52.968;8.844;2022-10-23T14:41:02;3.83;;;2.08;;
20890;SDS011;10605;52.968;8.844;2022-10-23T14:43:36;5.97;;;2.33;;
20890;SDS011;10605;52.968;8.844;2022-10-23T14:46:09;6.60;;;1.90;;
20890;SDS011;10605;52.968;8.844;2022-10-23T14:48:45;3.78;;;2.72;;
20890;SDS011;10605;52.968;8.844;2022-10-23T14:51:16;5.47;;;2.08;;
20890;SDS011;10605;52.968;8.844;2022-10-23T14:53:47;4.80;;;2.50;;
20890;SDS011;10605;52.968;8.844;2022-10-23T14:56:13;2.85;;;2.05;;
20890;SDS011;10605;52.968;8.844;2022-10-23T14:58:39;8.55;;;2.60;;
20890;SDS011;10605;52.968;8.844;2022-10-23T15:01:06;7.20;;;2.50;;
20890;SDS011;10605;52.968;8.844;2022-10-23T15:03:38;7.65;;;2.08;;
20890;SDS011;10605;52.968;8.844;2022-10-23T15:06:05;2.58;;;2.20;;
20890;SDS011;10605;52.968;8.844;2022-10-23T15:08:34;6.35;;;1.90;;
20890;SDS011;10605;52.968;8.844;2022-10-23T15:11:01;3.30;;;1.85;;
20890;SDS011;10605;52.968;8.844;2022-10-23T15:13:28;4.45;;;2.35;;
20890;SDS011;10605;52.968;8.844;2022-10-23T15:16:01;5.10;;;2.10;;
20890;SDS011;10605;52.968;8.844;2022-10-23T15:18:34;4.57;;;2.22;;
20890;SDS011;10605;52.968;8.844;2022-10-23T15:21:00;4.68;;;2.22;;
20890;SDS011;10605;52.968;8.844;2022-10-23T15:23:29;6.57;;;2.05;;
20890;SDS011;10605;52.968;8.844;2022-10-23T15:26:00;2.65;;;1.80;;
20890;SDS011;10605;52.968;8.844;2022-10-23T15:28:28;5.00;;;1.85;;
20890;SDS011;10605;52.968;8.844;2022-10-23T15:30:55;4.30;;;2.13;;
20890;SDS011;10605;52.968;8.844;2022-10-23T15:33:21;5.22;;;2.25;;
20890;SDS011;10605;52.968;8.844;2022-10-23T15:35:47;3.75;;;1.63;;
20890;SDS011;10605;52.968;8.844;2022-10-23T15:38:13;4.13;;;1.98;;
20890;SDS011;10605;52.968;8.844;2022-10-23T15:40:39;4.53;;;1.65;;
20890;SDS011;10605;52.968;8.844;2022-10-23T15:43:06;5.95;;;2.30;;
20890;SDS011;10605;52.968;8.844;2022-10-23T15:45:35;4.32;;;2.20;;
20890;SDS011;10605;52.968;8.844;2022-10-23T15:48:03;9.00;;;2.05;;
20890;SDS011;10605;52.968;8.844;2022-10-23T15:50:35;6.68;;;2.08;;
20890;SDS011;10605;52.968;8.844;2022-10-23T15:53:02;4.25;;;1.90;;
20890;SDS011;10605;52.968;8.844;2022-10-23T15:55:28;5.10;;;1.90;;
20890;SDS011;10605;52.968;8.844;2022-10-23T15:57:53;5.47;;;1.77;;
20890;SDS011;10605;52.968;8.844;2022-10-23T16:00:21;4.38;;;2.28;;
20890;SDS011;10605;52.968;8.844;2022-10-23T16:02:47;7.60;;;1.73;;
20890;SDS011;10605;52.968;8.844;2022-10-23T16:05:12;6.07;;;1.85;;
20890;SDS011;10605;52.968;8.844;2022-10-23T16:07:38;2.05;;;1.70;;
20890;SDS011;10605;52.968;8.844;2022-10-23T16:10:04;4.40;;;2.20;;
20890;SDS011;10605;52.968;8.844;2022-10-23T16:12:30;2.30;;;2.03;;
20890;SDS011;10605;52.968;8.844;2022-10-23T16:14:56;2.92;;;1.90;;
20890;SDS011;10605;52.968;8.844;2022-10-23T16:17:21;8.25;;;2.15;;
20890;SDS011;10605;52.968;8.844;2022-10-23T16:19:48;3.38;;;2.00;;
20890;SDS011;10605;52.968;8.844;2022-10-23T16:22:21;3.40;;;2.08;;
20890;SDS011;10605;52.968;8.844;2022-10-23T16:24:47;4.43;;;1.80;;
20890;SDS011;10605;52.968;8.844;2022-10-23T16:27:12;3.42;;;1.92;;
20890;SDS011;10605;52.968;8.844;2022-10-23T16:29:41;2.88;;;1.80;;
20890;SDS011;10605;52.968;8.844;2022-10-23T16:32:06;7.25;;;2.22;;
20890;SDS011;10605;52.968;8.844;2022-10-23T16:34:32;2.28;;;1.52;;
20890;SDS011;10605;52.968;8.844;2022-10-23T16:37:01;4.53;;;1.83;;
20890;SDS011;10605;52.968;8.844;2022-10-23T16:39:35;2.72;;;1.88;;
20890;SDS011;10605;52.968;8.844;2022-10-23T16:42:01;2.83;;;1.67;;
20890;SDS011;10605;52.968;8.844;2022-10-23T16:44:27;6.50;;;2.15;;
20890;SDS011;10605;52.968;8.844;2022-10-23T16:46:55;3.80;;;2.30;;
20890;SDS011;10605;52.968;8.844;2022-10-23T16:49:23;6.25;;;1.92;;